Maribel — LAGU6 — position and weather

sailwx.info

Track history (hours):
 
Tides and Currents Weather Stations Pressure Air Temp Water Temp Dewpoint Dewpoint Depression Visibility Wind Speed Wind Dir Waves Ship Positions

Maribel

Last reported at 2015-Mar-05 07:26 UTC. Time now 2015-Mar-06 21:45 UTC.
Position N 55°37' E 015°30'.

Length 227 m; draft 7.3 m.

Type: Ship. MMSI: 257872000.

Date/timePositionNaut miles runAvg speedWind from/ knotsBaromVisibWave heightAir tempDewpointWater temp
2015-Mar-05 07:26N 55°37' E 015°30'1213.4
2015-Mar-05 06:33N 55°32' E 015°11'1313.5
2015-Mar-05 05:33N 55°27' E 014°49'1313.2
2015-Mar-05 04:33N 55°18' E 014°32'1312.8
2015-Mar-05 03:34N 55°10' E 014°14'1413.5
2015-Mar-05 02:33N 55°10' E 013°50'1313.4
2015-Mar-05 01:33N 55°12' E 013°27'1413.5
2015-Mar-05 00:33N 55°14' E 013°04'1313.4
2015-Mar-04 23:33N 55°17' E 012°41'1111.1
2015-Mar-04 22:33N 55°28' E 012°41'9 9.5
2015-Mar-04 21:33N 55°38' E 012°42'1313.1
2015-Mar-04 20:33N 55°51' E 012°41'1413.5
2015-Mar-04 19:34N 56°04' E 012°37'1212.1
2015-Mar-04 18:33N 56°11' E 012°20'1312.9
2015-Mar-04 17:33N 56°20' E 012°03'1413.7
2015-Mar-04 16:33N 56°34' E 011°57'1313.5
2015-Mar-04 15:33N 56°47' E 011°52'1313.4
2015-Mar-04 14:33N 56°59' E 011°43'1313.0
2015-Mar-04 13:33N 57°11' E 011°36'1313.0
2015-Mar-04 12:33N 57°24' E 011°27'1212.4
2015-Mar-04 11:33N 57°34' E 011°13'1212.3
2015-Mar-04 10:33N 57°42' E 010°56'6 5.8
2015-Mar-04 09:33N 57°44' E 010°46'1110.8
2015-Mar-04 08:33N 57°53' E 010°35'29112.4
2015-Mar-03 09:07N 54°13' E 004°55'1312.6
2015-Mar-03 08:05N 54°01' E 004°45'15912.7
2015-Mar-02 19:33N 51°44' E 002°33'1211.8
2015-Mar-02 18:33N 51°35' E 002°21'1211.6
2015-Mar-02 17:33N 51°25' E 002°12'1211.6
2015-Mar-02 16:34N 51°14' E 002°04'1212.2
2015-Mar-02 15:33N 51°08' E 001°47'1312.7
2015-Mar-02 14:34N 50°60' E 001°32'1412.8
2015-Mar-02 13:30N 50°47' E 001°23'3712.5
2015-Mar-02 10:33N 50°27' E 000°35'  
Track history (hours):
 
Tides and Currents Weather Stations Pressure Air Temp Water Temp Dewpoint Dewpoint Depression Visibility Wind Speed Wind Dir Waves Ship Positions

Maribel

Last reported at 2015-Mar-05 07:26 UTC. Time now 2015-Mar-06 21:45 UTC.
Position N 55°37' E 015°30'.

Length 227 m; draft 7.3 m.

Type: Ship. MMSI: 257872000.

Date/timePositionNaut miles runAvg speedWind from/ knotsBaromVisibWave heightAir tempDewpointWater temp
2015-Mar-05 07:26N 55°37' E 015°30'1213.4
2015-Mar-05 06:33N 55°32' E 015°11'1313.5
2015-Mar-05 05:33N 55°27' E 014°49'1313.2
2015-Mar-05 04:33N 55°18' E 014°32'1312.8
2015-Mar-05 03:34N 55°10' E 014°14'1413.5
2015-Mar-05 02:33N 55°10' E 013°50'1313.4
2015-Mar-05 01:33N 55°12' E 013°27'1413.5
2015-Mar-05 00:33N 55°14' E 013°04'1313.4
2015-Mar-04 23:33N 55°17' E 012°41'1111.1
2015-Mar-04 22:33N 55°28' E 012°41'9 9.5
2015-Mar-04 21:33N 55°38' E 012°42'1313.1
2015-Mar-04 20:33N 55°51' E 012°41'1413.5
2015-Mar-04 19:34N 56°04' E 012°37'1212.1
2015-Mar-04 18:33N 56°11' E 012°20'1312.9
2015-Mar-04 17:33N 56°20' E 012°03'1413.7
2015-Mar-04 16:33N 56°34' E 011°57'1313.5
2015-Mar-04 15:33N 56°47' E 011°52'1313.4
2015-Mar-04 14:33N 56°59' E 011°43'1313.0
2015-Mar-04 13:33N 57°11' E 011°36'1313.0
2015-Mar-04 12:33N 57°24' E 011°27'1212.4
2015-Mar-04 11:33N 57°34' E 011°13'1212.3
2015-Mar-04 10:33N 57°42' E 010°56'6 5.8
2015-Mar-04 09:33N 57°44' E 010°46'1110.8
2015-Mar-04 08:33N 57°53' E 010°35'29112.4
2015-Mar-03 09:07N 54°13' E 004°55'1312.6
2015-Mar-03 08:05N 54°01' E 004°45'15912.7
2015-Mar-02 19:33N 51°44' E 002°33'1211.8
2015-Mar-02 18:33N 51°35' E 002°21'1211.6
2015-Mar-02 17:33N 51°25' E 002°12'1211.6
2015-Mar-02 16:34N 51°14' E 002°04'1212.2
2015-Mar-02 15:33N 51°08' E 001°47'1312.7
2015-Mar-02 14:34N 50°60' E 001°32'1412.8
2015-Mar-02 13:30N 50°47' E 001°23'3712.5
2015-Mar-02 10:33N 50°27' E 000°35'  

Dump ship's entire track history